Time;durP1;ratioP1;P1;durP2;ratioP2;P2;SDS_P1;SDS_P2;PMS_P1;PMS_P2;Temp;Humidity;BMP_temperature;BMP_pressure;BME280_temperature;BME280_humidity;BME280_pressure;Samples;Min_cycle;Max_cycle;Signal;HPM_P1;HPM_P2
2023/11/21 00:01:08;;;;;;;15.80;5.53;;;;;;;8.53;100.00;100271.19;5018631;28;20048;-85
2023/11/21 00:03:36;;;;;;;21.40;6.90;;;;;;;8.51;100.00;100273.75;4979555;28;20058;-85
2023/11/21 00:06:03;;;;;;;18.80;5.72;;;;;;;8.48;100.00;100271.19;4990475;28;20045;-84
2023/11/21 00:08:30;;;;;;;18.00;7.68;;;;;;;8.47;100.00;100274.66;4990591;28;20045;-86
2023/11/21 00:11:00;;;;;;;13.38;6.43;;;;;;;8.45;100.00;100284.22;4994037;28;20050;-84
2023/11/21 00:13:27;;;;;;;18.45;5.95;;;;;;;8.42;100.00;100282.50;4992392;28;20045;-84
2023/11/21 00:15:54;;;;;;;19.13;6.70;;;;;;;8.43;100.00;100281.63;4993292;28;20063;-87
2023/11/21 00:18:22;;;;;;;14.98;5.60;;;;;;;8.45;100.00;100281.63;4995652;28;20139;-85
2023/11/21 00:20:51;;;;;;;15.43;6.40;;;;;;;8.45;100.00;100292.06;4999098;28;20108;-82
2023/11/21 00:23:18;;;;;;;10.80;6.25;;;;;;;8.46;100.00;100288.63;4997360;28;20053;-81
2023/11/21 00:25:45;;;;;;;12.15;7.13;;;;;;;8.44;100.00;100287.72;4993259;28;20046;-80
2023/11/21 00:28:12;;;;;;;17.52;7.43;;;;;;;8.43;100.00;100285.97;4991648;28;20053;-81
2023/11/21 00:30:39;;;;;;;15.80;6.88;;;;;;;8.39;100.00;100285.13;4990118;28;20042;-81
2023/11/21 00:33:05;;;;;;;14.38;6.85;;;;;;;8.38;100.00;100285.13;4991355;28;20066;-82
2023/11/21 00:35:34;;;;;;;17.70;6.45;;;;;;;8.38;100.00;100288.63;4993979;28;20050;-82
2023/11/21 00:38:03;;;;;;;17.05;7.85;;;;;;;8.35;100.00;100278.19;5029422;28;20136;-82
2023/11/21 00:40:33;;;;;;;19.70;6.07;;;;;;;8.31;100.00;100273.88;4991072;28;20042;-82
2023/11/21 00:43:00;;;;;;;12.57;6.55;;;;;;;8.32;100.00;100279.94;5009239;28;20081;-81
2023/11/21 00:45:29;;;;;;;20.38;8.07;;;;;;;8.28;100.00;100279.97;5006224;28;20117;-81
2023/11/21 00:47:56;;;;;;;24.08;9.48;;;;;;;8.26;100.00;100284.31;4992316;28;20100;-81
2023/11/21 00:50:24;;;;;;;18.17;7.78;;;;;;;8.27;100.00;100290.41;5008130;28;20133;-83
2023/11/21 00:52:51;;;;;;;22.17;8.35;;;;;;;8.23;100.00;100292.16;4957172;28;20172;-81
2023/11/21 00:55:18;;;;;;;14.73;8.00;;;;;;;8.25;100.00;100293.03;5010571;28;20101;-82
2023/11/21 00:57:45;;;;;;;22.00;7.55;;;;;;;8.28;100.00;100305.19;4990239;28;20381;-82
2023/11/21 01:00:14;;;;;;;24.23;8.98;;;;;;;8.30;100.00;100295.59;4990577;28;20100;-84
2023/11/21 01:02:41;;;;;;;11.23;7.22;;;;;;;8.34;100.00;100305.13;4989172;28;20049;-81
2023/11/21 01:05:08;;;;;;;25.60;9.45;;;;;;;8.35;100.00;100308.63;4991633;28;20043;-81
2023/11/21 01:07:36;;;;;;;18.50;8.38;;;;;;;8.36;100.00;100306.00;4988163;28;20054;-83
2023/11/21 01:10:07;;;;;;;16.65;8.00;;;;;;;8.36;100.00;100310.38;4986053;28;20088;-81
2023/11/21 01:12:40;;;;;;;18.23;8.70;;;;;;;8.37;100.00;100315.56;4992475;28;20057;-82
2023/11/21 01:15:15;;;;;;;20.10;10.23;;;;;;;8.40;100.00;100312.94;5010321;28;20132;-81
2023/11/21 01:17:42;;;;;;;22.02;8.98;;;;;;;8.43;100.00;100314.66;5022069;28;20062;-81
2023/11/21 01:20:12;;;;;;;28.35;10.07;;;;;;;8.44;100.00;100317.25;5028272;28;20041;-81
2023/11/21 01:22:40;;;;;;;25.48;8.93;;;;;;;8.42;100.00;100315.53;5008236;28;20057;-82
2023/11/21 01:25:07;;;;;;;23.08;10.13;;;;;;;8.40;100.00;100325.13;5005690;28;20054;-81
2023/11/21 01:27:37;;;;;;;20.10;9.57;;;;;;;8.39;100.00;100324.25;5002265;28;20789;-82
2023/11/21 01:30:10;;;;;;;22.02;9.57;;;;;;;8.40;100.00;100325.97;5005656;28;20053;-82
2023/11/21 01:32:37;;;;;;;24.58;10.80;;;;;;;8.40;100.00;100327.72;4989806;28;20049;-82
2023/11/21 01:35:06;;;;;;;28.83;9.02;;;;;;;8.40;100.00;100340.78;4992178;28;20144;-82
2023/11/21 01:37:34;;;;;;;19.58;10.27;;;;;;;8.40;100.00;100336.41;4990923;28;20248;-82
2023/11/21 01:40:02;;;;;;;26.58;8.85;;;;;;;8.40;100.00;100338.16;4990719;28;20046;-82
2023/11/21 01:42:31;;;;;;;24.95;9.25;;;;;;;8.40;100.00;100338.16;5020722;28;20125;-82
2023/11/21 01:45:04;;;;;;;21.67;10.00;;;;;;;8.38;100.00;100335.56;5012532;28;20053;-81
2023/11/21 01:47:37;;;;;;;24.58;10.65;;;;;;;8.37;100.00;100343.38;5000949;28;20453;-82
2023/11/21 01:50:05;;;;;;;19.40;10.93;;;;;;;8.37;100.00;100343.38;4985649;28;20050;-82
2023/11/21 01:52:32;;;;;;;25.13;11.55;;;;;;;8.36;100.00;100332.09;5004119;28;20081;-82
2023/11/21 01:55:01;;;;;;;22.48;10.15;;;;;;;8.35;100.00;100340.78;5003031;28;20050;-82
2023/11/21 01:57:29;;;;;;;22.65;10.27;;;;;;;8.35;100.00;100332.09;5005096;28;20133;-82
2023/11/21 01:59:59;;;;;;;27.30;11.23;;;;;;;8.36;100.00;100336.47;5021487;28;20151;-82
2023/11/21 02:02:25;;;;;;;29.10;13.10;;;;;;;8.35;100.00;100335.56;5008264;28;20520;-82
2023/11/21 02:04:52;;;;;;;26.20;10.98;;;;;;;8.35;100.00;100342.53;5007452;28;20049;-83
2023/11/21 02:07:23;;;;;;;20.25;10.60;;;;;;;8.34;100.00;100339.03;5013597;28;20052;-81
2023/11/21 02:09:51;;;;;;;25.58;11.07;;;;;;;8.30;100.00;100342.53;5030239;28;20047;-81
2023/11/21 02:12:18;;;;;;;24.65;9.82;;;;;;;8.29;100.00;100340.81;5006817;28;20568;-81
2023/11/21 02:14:44;;;;;;;20.42;9.48;;;;;;;8.28;100.00;100344.31;4990019;28;20634;-82
2023/11/21 02:17:13;;;;;;;24.90;12.45;;;;;;;8.31;100.00;100343.44;5019138;28;20100;-83
2023/11/21 02:19:39;;;;;;;25.83;11.05;;;;;;;8.28;100.00;100347.78;5002093;28;20069;-81
2023/11/21 02:22:08;;;;;;;35.13;12.35;;;;;;;8.28;100.00;100352.13;5003301;28;20123;-81
2023/11/21 02:24:35;;;;;;;27.85;12.43;;;;;;;8.30;100.00;100354.72;5023852;28;20050;-82
2023/11/21 02:27:01;;;;;;;25.35;12.48;;;;;;;8.30;100.00;100352.13;5011015;28;20555;-81
2023/11/21 02:29:30;;;;;;;29.40;12.73;;;;;;;8.28;100.00;100352.13;5005395;28;20052;-80
2023/11/21 02:31:57;;;;;;;23.08;11.95;;;;;;;8.31;100.00;100356.47;5001255;28;20145;-82
2023/11/21 02:34:28;;;;;;;27.13;11.32;;;;;;;8.28;100.00;100355.59;4991308;28;20058;-80
2023/11/21 02:36:57;;;;;;;22.65;11.52;;;;;;;8.31;100.00;100356.47;4985709;28;20119;-82
2023/11/21 02:39:26;;;;;;;27.65;14.80;;;;;;;8.30;100.00;100354.72;5005613;28;20046;-81
2023/11/21 02:41:53;;;;;;;25.65;12.80;;;;;;;8.29;100.00;100359.06;5009039;28;20136;-83
2023/11/21 02:44:20;;;;;;;27.48;12.07;;;;;;;8.31;100.00;100353.88;5020097;28;20053;-81
2023/11/21 02:46:46;;;;;;;32.67;12.23;;;;;;;8.30;100.00;100355.59;5006785;28;20077;-81
2023/11/21 02:49:13;;;;;;;29.50;12.65;;;;;;;8.34;100.00;100359.91;5004472;28;20104;-81
2023/11/21 02:51:40;;;;;;;28.20;13.50;;;;;;;8.36;100.00;100362.53;5020932;28;20392;-81
2023/11/21 02:54:08;;;;;;;49.10;15.63;;;;;;;8.35;100.00;100359.03;5009518;28;20072;-81
2023/11/21 02:56:35;;;;;;;39.35;14.00;;;;;;;8.38;100.00;100363.38;5003469;28;20772;-83
2023/11/21 02:59:02;;;;;;;30.00;12.20;;;;;;;8.40;100.00;100362.50;4985627;28;20112;-81
2023/11/21 03:01:29;;;;;;;28.63;14.05;;;;;;;8.41;100.00;100364.25;5007109;28;20492;-82
2023/11/21 03:03:56;;;;;;;30.55;13.57;;;;;;;8.44;100.00;100374.66;5021274;28;20412;-82
2023/11/21 03:06:24;;;;;;;27.25;13.68;;;;;;;8.43;100.00;100367.72;5003483;28;20137;-81
2023/11/21 03:08:51;;;;;;;25.67;11.73;;;;;;;8.42;100.00;100370.31;5007809;28;20046;-81
2023/11/21 03:11:17;;;;;;;37.20;13.40;;;;;;;8.42;100.00;100376.41;5002311;28;20054;-81
2023/11/21 03:13:44;;;;;;;26.10;12.90;;;;;;;8.40;100.00;100385.13;5000831;28;20056;-81
2023/11/21 03:16:12;;;;;;;27.95;12.40;;;;;;;8.41;100.00;100382.50;4989944;28;20056;-81
2023/11/21 03:18:40;;;;;;;28.05;12.68;;;;;;;8.41;100.00;100387.72;5004193;28;20044;-81
2023/11/21 03:21:10;;;;;;;29.38;13.02;;;;;;;8.42;100.00;100385.97;5013172;28;20038;-81
2023/11/21 03:23:38;;;;;;;33.78;14.40;;;;;;;8.44;100.00;100381.63;5003900;28;20501;-80
2023/11/21 03:26:08;;;;;;;29.73;13.90;;;;;;;8.44;100.00;100387.69;4989619;28;20096;-80
2023/11/21 03:28:35;;;;;;;34.28;12.38;;;;;;;8.47;100.00;100393.81;5015615;28;20974;-81
2023/11/21 03:31:02;;;;;;;23.67;13.32;;;;;;;8.52;100.00;100399.88;4989412;28;20049;-81
2023/11/21 03:33:29;;;;;;;23.30;11.77;;;;;;;8.56;100.00;100405.06;5022201;28;20137;-81
2023/11/21 03:35:56;;;;;;;32.13;13.50;;;;;;;8.53;100.00;100402.47;5011008;28;20076;-81
2023/11/21 03:38:22;;;;;;;31.77;14.32;;;;;;;8.53;100.00;100409.44;5003779;28;20048;-81
2023/11/21 03:40:50;;;;;;;29.83;13.27;;;;;;;8.53;100.00;100415.53;4985186;28;21042;-81
2023/11/21 03:43:17;;;;;;;26.52;14.02;;;;;;;8.53;100.00;100415.53;5020967;28;20863;-83
2023/11/21 03:45:46;;;;;;;31.50;13.88;;;;;;;8.55;100.00;100411.16;5004889;28;20572;-81
2023/11/21 03:48:17;;;;;;;34.63;15.25;;;;;;;8.52;100.00;100412.91;5001642;28;20046;-82
2023/11/21 03:50:47;;;;;;;26.85;14.65;;;;;;;8.48;100.00;100408.59;4998687;28;20042;-80
2023/11/21 03:53:15;;;;;;;31.77;13.05;;;;;;;8.47;100.00;100409.47;5015164;28;20077;-81
2023/11/21 03:55:42;;;;;;;32.13;14.43;;;;;;;8.51;100.00;100417.25;4999605;28;20520;-81
2023/11/21 03:58:08;;;;;;;36.80;15.95;;;;;;;8.46;100.00;100413.81;5006302;28;20076;-82
2023/11/21 04:00:35;;;;;;;51.53;17.50;;;;;;;8.48;100.00;100419.03;5002386;28;20115;-82
2023/11/21 04:03:02;;;;;;;37.70;15.07;;;;;;;8.41;100.00;100420.78;5007390;28;20387;-81
2023/11/21 04:05:29;;;;;;;36.53;16.58;;;;;;;8.41;100.00;100423.38;5021035;28;20063;-82
2023/11/21 04:07:58;;;;;;;31.50;16.88;;;;;;;8.37;100.00;100432.94;4986621;28;20045;-82
2023/11/21 04:10:25;;;;;;;43.80;17.05;;;;;;;8.38;100.00;100429.47;4990087;28;20062;-80
2023/11/21 04:12:54;;;;;;;40.50;15.75;;;;;;;8.37;100.00;100429.44;4988836;28;20041;-81
2023/11/21 04:15:20;;;;;;;40.20;17.17;;;;;;;8.38;100.00;100437.28;4985663;28;20062;-81
2023/11/21 04:17:49;;;;;;;40.35;17.23;;;;;;;8.38;100.00;100442.50;5019108;28;20148;-81
2023/11/21 04:20:16;;;;;;;34.85;16.70;;;;;;;8.37;100.00;100442.50;5004268;28;20045;-80
2023/11/21 04:22:48;;;;;;;42.70;19.50;;;;;;;8.37;100.00;100440.78;4983084;28;20042;-81
2023/11/21 04:25:17;;;;;;;40.20;18.83;;;;;;;8.36;100.00;100448.59;5001924;28;20062;-82
2023/11/21 04:27:47;;;;;;;39.55;18.13;;;;;;;8.35;100.00;100449.47;4983663;28;20168;-82
2023/11/21 04:30:15;;;;;;;39.95;19.58;;;;;;;8.35;100.00;100458.16;5002011;28;20056;-81
2023/11/21 04:32:42;;;;;;;39.47;18.50;;;;;;;8.31;100.00;100468.63;5001027;28;20049;-82
2023/11/21 04:35:09;;;;;;;47.13;20.02;;;;;;;8.32;100.00;100467.72;5004280;28;20132;-83
2023/11/21 04:37:36;;;;;;;42.58;18.35;;;;;;;8.30;100.00;100465.13;5018825;28;20081;-82
2023/11/21 04:40:06;;;;;;;40.92;18.73;;;;;;;8.31;100.00;100469.47;5002896;28;20057;-81
2023/11/21 04:42:36;;;;;;;41.75;18.40;;;;;;;8.29;100.00;100471.19;4999112;28;20073;-81
2023/11/21 04:45:05;;;;;;;41.03;18.95;;;;;;;8.24;100.00;100472.97;4986676;28;20047;-80
2023/11/21 04:47:31;;;;;;;51.88;18.27;;;;;;;8.18;100.00;100479.06;5017991;28;20046;-80
2023/11/21 04:49:58;;;;;;;43.03;20.77;;;;;;;8.15;100.00;100483.41;4987308;28;20058;-81
2023/11/21 04:52:25;;;;;;;42.85;18.17;;;;;;;8.17;100.00;100490.34;5025280;28;20156;-81
2023/11/21 04:54:54;;;;;;;39.92;17.92;;;;;;;8.15;100.00;100497.31;4986137;28;20072;-80
2023/11/21 04:57:21;;;;;;;39.65;17.35;;;;;;;8.17;100.00;100499.94;5001769;28;20061;-80
2023/11/21 04:59:50;;;;;;;41.22;18.27;;;;;;;8.15;100.00;100494.72;5021111;28;20132;-80
2023/11/21 05:02:19;;;;;;;38.13;18.52;;;;;;;8.13;100.00;100498.19;5019717;28;20081;-80
2023/11/21 05:04:46;;;;;;;40.70;19.08;;;;;;;8.14;100.00;100506.00;4989284;28;20045;-82
2023/11/21 05:07:13;;;;;;;37.85;17.00;;;;;;;8.14;100.00;100505.16;5023170;28;20109;-81
2023/11/21 05:09:48;;;;;;;39.92;18.48;;;;;;;8.14;100.00;100508.63;5019574;28;20066;-83
2023/11/21 05:12:15;;;;;;;36.35;17.25;;;;;;;8.15;100.00;100510.38;5007758;28;20057;-81
2023/11/21 05:14:43;;;;;;;30.50;14.73;;;;;;;8.15;100.00;100512.09;5007413;28;20531;-81
2023/11/21 05:17:10;;;;;;;33.42;16.52;;;;;;;8.14;100.00;100510.38;5005491;28;20050;-81
2023/11/21 05:19:40;;;;;;;32.85;16.02;;;;;;;8.11;100.00;100519.06;5003161;28;20093;-83
2023/11/21 05:22:08;;;;;;;34.00;14.73;;;;;;;8.11;100.00;100519.06;5009252;28;20046;-81
2023/11/21 05:24:36;;;;;;;27.98;13.88;;;;;;;8.13;100.00;100522.53;5002212;28;20047;-81
2023/11/21 05:27:02;;;;;;;29.15;14.40;;;;;;;8.11;100.00;100524.28;5018751;28;20089;-82
2023/11/21 05:29:29;;;;;;;26.60;13.60;;;;;;;8.08;100.00;100527.75;5005057;28;20053;-80
2023/11/21 05:31:55;;;;;;;27.13;13.05;;;;;;;8.07;100.00;100531.22;5008885;28;20056;-81
2023/11/21 05:34:23;;;;;;;29.70;13.82;;;;;;;8.08;100.00;100527.75;5026665;28;20046;-80
2023/11/21 05:36:51;;;;;;;33.92;14.77;;;;;;;8.10;100.00;100536.44;4992021;28;20058;-80
2023/11/21 05:39:19;;;;;;;29.38;14.68;;;;;;;8.11;100.00;100539.94;5004563;28;20062;-81
2023/11/21 05:41:47;;;;;;;28.95;13.77;;;;;;;8.11;100.00;100546.00;4997157;28;20042;-81
2023/11/21 05:44:15;;;;;;;26.83;12.70;;;;;;;8.11;100.00;100548.59;5027024;28;20481;-80
2023/11/21 05:46:43;;;;;;;28.27;13.45;;;;;;;8.12;100.00;100546.84;5022044;28;20075;-82
2023/11/21 05:49:13;;;;;;;27.13;13.32;;;;;;;8.12;100.00;100552.06;5021231;28;20053;-80
2023/11/21 05:51:42;;;;;;;24.73;11.80;;;;;;;8.13;100.00;100555.56;4988442;28;20509;-82
2023/11/21 05:54:12;;;;;;;22.50;10.85;;;;;;;8.08;100.00;100559.03;5021077;28;20107;-82
2023/11/21 05:56:43;;;;;;;18.52;10.63;;;;;;;8.08;100.00;100564.25;5012778;28;20723;-83
2023/11/21 05:59:13;;;;;;;27.70;12.52;;;;;;;8.06;100.00;100559.91;4992147;28;20049;-83
2023/11/21 06:01:41;;;;;;;24.70;10.55;;;;;;;8.09;100.00;100565.13;5005827;28;20050;-81
2023/11/21 06:04:09;;;;;;;21.38;10.38;;;;;;;8.11;100.00;100569.47;5006133;28;20196;-80
2023/11/21 06:06:36;;;;;;;22.85;10.00;;;;;;;8.15;100.00;100572.06;4989993;28;20089;-81
2023/11/21 06:09:05;;;;;;;18.52;9.30;;;;;;;8.14;100.00;100578.16;5004563;28;20097;-82
2023/11/21 06:11:32;;;;;;;16.77;9.00;;;;;;;8.09;100.00;100578.16;4988436;28;20065;-81
2023/11/21 06:13:59;;;;;;;21.95;11.20;;;;;;;8.06;100.00;100584.22;5023526;28;20231;-82
2023/11/21 06:16:26;;;;;;;19.90;9.07;;;;;;;8.01;100.00;100579.91;5005382;28;20046;-80
2023/11/21 06:18:52;;;;;;;18.83;8.77;;;;;;;8.01;100.00;100578.16;5001944;28;20509;-81
2023/11/21 06:21:19;;;;;;;16.13;8.63;;;;;;;8.05;100.00;100590.31;5025741;28;20050;-81
2023/11/21 06:23:46;;;;;;;24.92;10.32;;;;;;;8.11;100.00;100597.28;5007474;28;20047;-81
2023/11/21 06:26:15;;;;;;;19.45;9.45;;;;;;;8.10;100.00;100595.53;5003961;28;20108;-81
2023/11/21 06:28:42;;;;;;;17.65;8.90;;;;;;;8.10;100.00;100587.72;4999231;28;20065;-82
2023/11/21 06:31:10;;;;;;;17.85;9.85;;;;;;;8.10;100.00;100599.00;4997367;28;20089;-82
2023/11/21 06:33:39;;;;;;;13.20;8.50;;;;;;;8.10;100.00;100604.22;5011228;28;20117;-81
2023/11/21 06:36:06;;;;;;;17.98;8.93;;;;;;;8.12;100.00;100609.41;5010770;28;20050;-82
2023/11/21 06:38:34;;;;;;;19.35;9.73;;;;;;;8.08;100.00;100611.19;4994459;28;20069;-81
2023/11/21 06:41:02;;;;;;;20.40;9.77;;;;;;;8.08;100.00;100616.41;5025394;28;20081;-82
2023/11/21 06:43:31;;;;;;;16.27;8.82;;;;;;;8.14;100.00;100625.94;5025968;28;20041;-82
2023/11/21 06:45:58;;;;;;;17.23;9.80;;;;;;;8.16;100.00;100629.44;5010269;28;20100;-82
2023/11/21 06:48:25;;;;;;;12.52;6.40;;;;;;;7.73;100.00;100637.16;4997878;28;20053;-82
2023/11/21 06:50:57;;;;;;;12.15;6.40;;;;;;;7.50;100.00;100642.34;5009253;28;20043;-81
2023/11/21 06:53:26;;;;;;;10.13;6.18;;;;;;;7.35;100.00;100654.41;5002230;28;20042;-80
2023/11/21 06:55:55;;;;;;;9.40;4.70;;;;;;;7.14;100.00;100651.72;4995535;28;20146;-81
2023/11/21 06:58:21;;;;;;;6.15;4.88;;;;;;;7.07;100.00;100671.66;5009108;28;20042;-81
2023/11/21 07:00:50;;;;;;;11.95;5.10;;;;;;;7.04;100.00;100674.22;5007039;28;20131;-81
2023/11/21 07:03:18;;;;;;;7.53;5.75;;;;;;;7.10;100.00;100679.47;5026384;28;20068;-81
2023/11/21 07:05:46;;;;;;;8.43;5.05;;;;;;;7.14;100.00;100682.97;5005163;28;20049;-83
2023/11/21 07:08:13;;;;;;;7.28;4.97;;;;;;;7.09;100.00;100695.94;4972949;28;20053;-82
2023/11/21 07:10:40;;;;;;;9.60;5.18;;;;;;;7.06;100.00;100695.94;4995092;28;20057;-81
2023/11/21 07:13:12;;;;;;;8.98;6.30;;;;;;;7.09;100.00;100696.81;5014647;28;20333;-82
2023/11/21 07:15:39;;;;;;;6.60;5.03;;;;;;;7.06;100.00;100701.13;4998793;28;20049;-82
2023/11/21 07:18:07;;;;;;;9.48;5.32;;;;;;;7.09;100.00;100704.63;5000726;28;20077;-80
2023/11/21 07:20:34;;;;;;;9.52;4.70;;;;;;;7.09;100.00;100699.44;5001779;28;20137;-82
2023/11/21 07:23:01;;;;;;;8.23;3.72;;;;;;;6.99;100.00;100704.53;5016255;28;20046;-81
2023/11/21 07:25:28;;;;;;;5.00;3.25;;;;;;;6.98;100.00;100706.28;4997209;28;20049;-82
2023/11/21 07:27:56;;;;;;;5.35;3.40;;;;;;;6.98;100.00;100715.84;4996006;28;20136;-82
2023/11/21 07:30:23;;;;;;;7.80;4.88;;;;;;;6.91;100.00;100717.50;5012066;28;20451;-80
2023/11/21 07:32:57;;;;;;;5.53;4.10;;;;;;;7.03;100.00;100719.34;4988303;28;20034;-83
2023/11/21 07:35:27;;;;;;;6.20;3.92;;;;;;;6.87;100.00;100729.66;5018052;28;20085;-81
2023/11/21 07:37:55;;;;;;;6.00;4.57;;;;;;;6.83;100.00;100727.00;5013186;28;20041;-81
2023/11/21 07:40:22;;;;;;;4.22;3.53;;;;;;;6.83;100.00;100740.91;4997044;28;20056;-81
2023/11/21 07:42:50;;;;;;;6.05;3.53;;;;;;;6.76;100.00;100744.28;4996714;28;20093;-81
2023/11/21 07:45:21;;;;;;;9.57;5.05;;;;;;;6.75;100.00;100753.84;4989324;28;20057;-82
2023/11/21 07:47:48;;;;;;;6.47;4.28;;;;;;;6.65;100.00;100759.81;5025083;28;20088;-81
2023/11/21 07:50:15;;;;;;;7.45;4.18;;;;;;;6.55;100.00;100756.25;4989936;28;20050;-81
2023/11/21 07:52:41;;;;;;;7.53;4.55;;;;;;;6.57;100.00;100762.34;4986117;28;20072;-82
2023/11/21 07:55:08;;;;;;;7.63;5.28;;;;;;;6.57;100.00;100764.94;4990792;28;20469;-80
2023/11/21 07:57:36;;;;;;;6.45;4.88;;;;;;;6.64;100.00;100772.81;5006559;28;20505;-82
2023/11/21 08:00:06;;;;;;;5.55;4.43;;;;;;;6.62;100.00;100775.38;4992081;28;20089;-81
2023/11/21 08:02:33;;;;;;;7.22;4.47;;;;;;;6.61;100.00;100782.31;5001855;28;20049;-80
2023/11/21 08:05:01;;;;;;;9.00;4.85;;;;;;;6.66;100.00;100784.94;5005191;28;20452;-81
2023/11/21 08:07:27;;;;;;;8.98;5.07;;;;;;;6.72;100.00;100784.16;5005485;28;20050;-81
2023/11/21 08:09:54;;;;;;;8.98;5.38;;;;;;;6.66;100.00;100787.56;5003365;28;20046;-80
2023/11/21 08:12:23;;;;;;;7.50;5.75;;;;;;;6.68;100.00;100790.19;4990116;28;20049;-81
2023/11/21 08:14:50;;;;;;;6.78;5.45;;;;;;;6.60;100.00;100803.97;5016930;28;20050;-82
2023/11/21 08:17:19;;;;;;;13.63;7.18;;;;;;;6.57;100.00;100809.16;5012135;28;20041;-81
2023/11/21 08:19:49;;;;;;;10.13;5.97;;;;;;;6.66;100.00;100813.56;5018982;28;20467;-81
2023/11/21 08:22:17;;;;;;;9.55;7.07;;;;;;;6.69;100.00;100815.31;5002338;28;20038;-80
2023/11/21 08:24:46;;;;;;;8.77;6.38;;;;;;;6.77;100.00;100818.91;4999641;28;20124;-80
2023/11/21 08:27:16;;;;;;;12.20;7.07;;;;;;;6.79;100.00;100817.16;4985192;28;20874;-82
2023/11/21 08:29:44;;;;;;;10.45;6.55;;;;;;;6.79;100.00;100824.97;4990743;28;20042;-82
2023/11/21 08:32:10;;;;;;;13.13;7.22;;;;;;;6.77;100.00;100834.50;5007314;28;20045;-82
2023/11/21 08:34:39;;;;;;;11.80;7.53;;;;;;;6.82;100.00;100827.63;5028605;28;20520;-82
2023/11/21 08:37:06;;;;;;;12.98;8.18;;;;;;;6.88;100.00;100832.88;5012251;28;20037;-82
2023/11/21 08:39:33;;;;;;;13.85;8.07;;;;;;;6.95;100.00;100833.81;5000348;28;20046;-83
2023/11/21 08:42:00;;;;;;;13.13;8.05;;;;;;;6.84;100.00;100825.88;4989670;28;20042;-81
2023/11/21 08:44:26;;;;;;;11.30;7.80;;;;;;;6.76;100.00;100832.75;5022119;28;20044;-81
2023/11/21 08:46:56;;;;;;;10.85;7.03;;;;;;;6.61;100.00;100828.28;4989225;28;20050;-81
2023/11/21 08:49:23;;;;;;;14.20;8.18;;;;;;;6.66;100.00;100834.38;5012311;28;20480;-81
2023/11/21 08:51:50;;;;;;;11.43;8.27;;;;;;;6.78;100.00;100838.84;5012906;28;20724;-81
2023/11/21 08:54:16;;;;;;;13.73;7.85;;;;;;;6.85;100.00;100835.44;5026557;28;20046;-81
2023/11/21 08:56:44;;;;;;;14.55;8.85;;;;;;;6.91;100.00;100845.03;4992594;28;20054;-81
2023/11/21 08:59:12;;;;;;;11.57;7.40;;;;;;;6.91;100.00;100856.31;5006631;28;20065;-81
2023/11/21 09:01:42;;;;;;;10.68;6.88;;;;;;;6.97;100.00;100847.69;4994152;28;20047;-82
2023/11/21 09:04:09;;;;;;;11.95;8.25;;;;;;;7.11;100.00;100858.22;5026112;28;20050;-81
2023/11/21 09:06:36;;;;;;;12.00;7.63;;;;;;;7.24;100.00;100867.03;4990841;28;20042;-82
2023/11/21 09:09:04;;;;;;;12.77;8.77;;;;;;;7.34;100.00;100858.44;4988800;28;20127;-82
2023/11/21 09:11:33;;;;;;;11.00;8.00;;;;;;;7.35;100.00;100864.50;5010749;28;20057;-81
2023/11/21 09:14:01;;;;;;;10.93;7.20;;;;;;;7.10;100.00;100869.50;5022224;28;20041;-82
2023/11/21 09:16:28;;;;;;;9.45;6.65;;;;;;;7.19;100.00;100872.19;5010432;28;20656;-81
2023/11/21 09:18:58;;;;;;;10.60;6.95;;;;;;;7.24;100.00;100880.03;5009192;28;20501;-81
2023/11/21 09:21:25;;;;;;;10.43;7.55;;;;;;;7.13;100.00;100882.53;5025718;28;20100;-81
2023/11/21 09:23:52;;;;;;;11.65;6.40;;;;;;;7.10;100.00;100891.22;5012513;28;20038;-80
2023/11/21 09:26:19;;;;;;;9.88;7.13;;;;;;;6.94;100.00;100890.19;4996928;28;20046;-81
2023/11/21 09:28:47;;;;;;;10.63;6.60;;;;;;;7.09;100.00;100901.59;5026598;28;20167;-83
2023/11/21 09:31:16;;;;;;;11.57;6.85;;;;;;;7.20;100.00;100907.78;5012060;28;20145;-80
2023/11/21 09:33:44;;;;;;;13.40;6.57;;;;;;;7.26;100.00;100906.94;5013116;28;20034;-80
2023/11/21 09:36:14;;;;;;;11.20;7.28;;;;;;;7.35;100.00;100908.75;5006662;28;20050;-82
2023/11/21 09:38:42;;;;;;;8.95;6.03;;;;;;;7.26;100.00;100919.97;4995861;28;20050;-81
2023/11/21 09:41:22;;;;;;;8.57;6.03;;;;;;;7.15;100.00;100922.47;5010125;28;20052;-82
2023/11/21 09:43:54;;;;;;;14.20;6.68;;;;;;;7.15;100.00;100922.47;5028221;28;20042;-81
2023/11/21 09:46:25;;;;;;;11.25;6.05;;;;;;;7.20;100.00;100926.00;5009084;28;20053;-81
2023/11/21 09:48:53;;;;;;;9.63;6.38;;;;;;;7.35;100.00;100929.59;5008230;28;20053;-81
2023/11/21 09:51:22;;;;;;;9.30;7.03;;;;;;;7.42;100.00;100928.81;5028545;28;20093;-80
2023/11/21 09:53:52;;;;;;;9.93;6.55;;;;;;;7.39;100.00;100940.06;5010875;28;20057;-80
2023/11/21 09:56:23;;;;;;;8.80;6.13;;;;;;;7.48;100.00;100938.41;5027505;28;20049;-81
2023/11/21 09:58:57;;;;;;;10.45;6.93;;;;;;;7.57;100.00;100951.50;5009371;28;20048;-82
2023/11/21 10:01:26;;;;;;;7.95;5.70;;;;;;;7.53;100.00;100942.78;5032657;28;20045;-81
2023/11/21 10:03:53;;;;;;;9.73;6.72;;;;;;;7.59;100.00;100949.78;5025772;28;20037;-82
2023/11/21 10:06:20;;;;;;;8.32;5.25;;;;;;;7.54;100.00;100962.75;5007002;28;20386;-81
2023/11/21 10:08:46;;;;;;;8.75;5.40;;;;;;;7.49;100.00;100963.59;4992966;28;20559;-82
2023/11/21 10:11:15;;;;;;;8.60;5.63;;;;;;;7.44;100.00;100956.63;5009235;28;20436;-81
2023/11/21 10:13:42;;;;;;;6.03;4.78;;;;;;;7.55;100.00;100963.66;5013642;28;20045;-81
2023/11/21 10:16:13;;;;;;;7.93;5.43;;;;;;;7.57;100.00;100957.59;4992112;28;20081;-82
2023/11/21 10:18:41;;;;;;;8.73;5.07;;;;;;;7.77;100.00;100962.09;5009026;28;20926;-82
2023/11/21 10:21:09;;;;;;;7.43;4.57;;;;;;;7.66;100.00;100956.78;4995797;28;20077;-81
2023/11/21 10:23:38;;;;;;;6.97;5.10;;;;;;;7.74;100.00;100969.88;5012430;28;20049;-81
2023/11/21 10:26:16;;;;;;;8.63;5.47;;;;;;;7.78;100.00;100971.63;5006356;28;20085;-81
2023/11/21 10:29:01;;;;;;;9.32;5.05;;;;;;;7.56;100.00;100974.06;5011600;28;20125;-82
2023/11/21 10:31:29;;;;;;;6.35;4.65;;;;;;;7.54;99.61;100983.59;5028559;28;20042;-82
2023/11/21 10:34:18;;;;;;;7.60;4.53;;;;;;;7.69;98.25;100989.81;4993908;28;20039;-81
2023/11/21 10:36:47;;;;;;;6.78;4.30;;;;;;;7.44;96.85;100986.97;5028076;28;20413;-81
2023/11/21 10:39:23;;;;;;;4.72;4.30;;;;;;;7.57;97.40;100985.34;5011108;28;20046;-83
2023/11/21 10:41:54;;;;;;;6.40;5.05;;;;;;;7.50;96.51;100988.78;5006996;28;20111;-83
2023/11/21 10:44:23;;;;;;;6.43;5.05;;;;;;;7.54;96.05;100991.41;5011970;28;20127;-82
2023/11/21 10:46:56;;;;;;;4.53;4.13;;;;;;;7.62;97.14;100991.50;5018072;28;20077;-82
2023/11/21 10:49:27;;;;;;;7.53;5.00;;;;;;;7.63;96.11;101003.66;5019329;28;20042;-82
2023/11/21 10:51:57;;;;;;;6.07;4.18;;;;;;;7.39;94.04;101006.91;5005701;28;20042;-81
2023/11/21 10:54:26;;;;;;;7.32;4.70;;;;;;;7.58;94.14;101000.13;5027186;28;20033;-82
2023/11/21 10:57:07;;;;;;;11.07;6.13;;;;;;;7.47;92.89;101010.47;4989170;28;20050;-82
2023/11/21 10:59:33;;;;;;;6.80;4.35;;;;;;;7.49;94.73;101013.09;4990205;28;20061;-81
2023/11/21 11:02:03;;;;;;;6.80;3.78;;;;;;;7.35;94.03;101016.41;5023403;28;20038;-82
2023/11/21 11:04:30;;;;;;;6.20;4.07;;;;;;;7.39;93.38;101013.00;4988429;28;20030;-81
2023/11/21 11:07:04;;;;;;;9.43;3.90;;;;;;;7.59;94.09;101009.72;5015761;28;20042;-80
2023/11/21 11:09:33;;;;;;;6.28;3.85;;;;;;;7.74;91.60;101022.88;5007147;28;20049;-80
2023/11/21 11:12:01;;;;;;;5.88;3.95;;;;;;;7.51;90.89;101024.38;5008617;28;20034;-83
2023/11/21 11:14:28;;;;;;;11.23;4.20;;;;;;;7.62;89.80;101020.16;4987094;28;20121;-81
2023/11/21 11:16:57;;;;;;;10.45;4.82;;;;;;;7.66;90.42;101028.88;4965759;28;20424;-80
2023/11/21 11:19:33;;;;;;;5.32;3.85;;;;;;;7.76;90.97;101023.75;4992081;28;20551;-81
2023/11/21 11:22:44;;;;;;;8.93;4.28;;;;;;;8.00;92.54;101019.59;4988967;28;20052;-84